Time;durP1;ratioP1;P1;durP2;ratioP2;P2;SDS_P1;SDS_P2;PMS_P1;PMS_P2;Temp;Humidity;BMP_temperature;BMP_pressure;BME280_temperature;BME280_humidity;BME280_pressure;Samples;Min_cycle;Max_cycle;Signal;HPM_P1;HPM_P2
2022/07/07 00:02:17;;;;;;;3.93;2.70;;;16.30;88.70;;;;;;5027501;28;20214;-60
2022/07/07 00:04:43;;;;;;;3.60;2.80;;;16.10;88.30;;;;;;5028995;28;20771;-60
2022/07/07 00:07:09;;;;;;;2.40;2.20;;;16.40;88.80;;;;;;5028961;28;20560;-61
2022/07/07 00:09:34;;;;;;;2.80;2.60;;;16.40;88.50;;;;;;5024521;28;20248;-60
2022/07/07 00:12:00;;;;;;;3.50;2.80;;;16.40;88.90;;;;;;5023893;28;20233;-60
2022/07/07 00:14:26;;;;;;;2.97;2.33;;;16.30;88.90;;;;;;5031502;28;20178;-60
2022/07/07 00:16:52;;;;;;;4.33;3.00;;;16.30;89.20;;;;;;5033186;28;20256;-60
2022/07/07 00:19:17;;;;;;;2.90;2.50;;;16.30;89.10;;;;;;5024860;28;20436;-60
2022/07/07 00:21:43;;;;;;;4.10;3.00;;;16.40;90.10;;;;;;5032542;28;20205;-60
2022/07/07 00:24:08;;;;;;;2.87;2.67;;;16.30;91.10;;;;;;5032314;28;20217;-60
2022/07/07 00:26:34;;;;;;;2.67;2.37;;;16.20;91.00;;;;;;5030673;28;20194;-60
2022/07/07 00:29:00;;;;;;;2.57;2.20;;;16.10;90.50;;;;;;5033096;28;20807;-60
2022/07/07 00:31:26;;;;;;;2.95;2.72;;;16.20;90.60;;;;;;5027219;28;20668;-60
2022/07/07 00:33:52;;;;;;;2.33;2.13;;;16.30;90.60;;;;;;5025423;28;20195;-60
2022/07/07 00:36:17;;;;;;;3.40;2.50;;;16.20;90.60;;;;;;5033590;28;20242;-61
2022/07/07 00:38:43;;;;;;;2.90;2.70;;;16.20;90.70;;;;;;5026535;28;20191;-60
2022/07/07 00:41:08;;;;;;;2.30;2.20;;;16.20;90.90;;;;;;5030344;28;20681;-60
2022/07/07 00:43:39;;;;;;;2.37;2.17;;;16.20;91.00;;;;;;5031141;28;20240;-60
2022/07/07 00:46:06;;;;;;;2.65;2.45;;;16.10;91.00;;;;;;5026702;28;20644;-60
2022/07/07 00:48:36;;;;;;;3.28;2.60;;;16.20;91.00;;;;;;5028706;28;20179;-60
2022/07/07 00:51:04;;;;;;;3.88;2.00;;;16.30;91.00;;;;;;5025227;28;20249;-60
2022/07/07 00:53:30;;;;;;;2.72;2.38;;;16.30;90.70;;;;;;5030965;28;20238;-60
2022/07/07 00:55:56;;;;;;;3.00;2.08;;;16.40;90.90;;;;;;5032662;28;20270;-59
2022/07/07 00:58:22;;;;;;;7.33;3.00;;;16.40;90.60;;;;;;5026533;28;20281;-59
2022/07/07 01:00:48;;;;;;;2.40;2.20;;;16.60;90.40;;;;;;5030395;28;20230;-60
2022/07/07 01:03:14;;;;;;;2.40;2.20;;;16.40;90.20;;;;;;5032268;28;20248;-60
2022/07/07 01:05:41;;;;;;;2.47;1.90;;;16.30;90.20;;;;;;5022274;28;20664;-60
2022/07/07 01:08:09;;;;;;;2.72;2.30;;;16.40;90.20;;;;;;5028510;28;20189;-60
2022/07/07 01:10:35;;;;;;;2.70;2.08;;;16.50;90.30;;;;;;5029467;28;20263;-60
2022/07/07 01:13:02;;;;;;;2.50;2.30;;;16.40;90.20;;;;;;5024032;28;20185;-60
2022/07/07 01:15:28;;;;;;;2.60;2.40;;;16.50;90.20;;;;;;5023794;28;20231;-60
2022/07/07 01:17:54;;;;;;;2.70;2.37;;;16.20;90.00;;;;;;5026283;28;20262;-60
2022/07/07 01:20:20;;;;;;;4.90;1.97;;;16.40;90.20;;;;;;5029653;28;20635;-59
2022/07/07 01:22:48;;;;;;;3.10;2.05;;;16.50;91.00;;;;;;5032841;28;20214;-60
2022/07/07 01:25:14;;;;;;;2.53;2.33;;;16.30;91.30;;;;;;5031188;28;20248;-60
2022/07/07 01:27:39;;;;;;;2.40;2.30;;;16.30;91.20;;;;;;5031576;28;20186;-60
2022/07/07 01:30:06;;;;;;;5.20;2.50;;;16.30;91.20;;;;;;5031903;28;20206;-61
2022/07/07 01:32:31;;;;;;;2.50;2.30;;;16.20;91.20;;;;;;5032485;28;20221;-62
2022/07/07 01:34:57;;;;;;;2.93;2.20;;;16.50;91.20;;;;;;5031059;28;20213;-62
2022/07/07 01:37:24;;;;;;;3.37;3.00;;;16.30;91.00;;;;;;5031876;28;20548;-61
2022/07/07 01:39:51;;;;;;;2.10;2.00;;;16.20;90.70;;;;;;5029272;28;20675;-60
2022/07/07 01:42:16;;;;;;;2.50;2.30;;;16.40;90.90;;;;;;5022023;28;20769;-60
2022/07/07 01:44:44;;;;;;;4.30;2.17;;;16.30;90.90;;;;;;5030039;28;20178;-60
2022/07/07 01:47:11;;;;;;;3.20;2.45;;;16.40;91.20;;;;;;5032596;28;20189;-60
2022/07/07 01:49:37;;;;;;;2.60;2.40;;;16.30;91.10;;;;;;5030890;28;20324;-61
2022/07/07 01:52:04;;;;;;;2.50;2.30;;;16.30;91.20;;;;;;5032857;28;20198;-60
2022/07/07 01:54:31;;;;;;;2.65;2.45;;;16.20;91.20;;;;;;5025799;28;20221;-60
2022/07/07 01:56:57;;;;;;;3.38;2.20;;;16.20;91.20;;;;;;5032344;28;20224;-60
2022/07/07 01:59:22;;;;;;;4.40;2.53;;;16.50;91.30;;;;;;5028419;28;20186;-60
2022/07/07 02:01:48;;;;;;;3.03;2.77;;;16.40;91.20;;;;;;5030798;28;20222;-61
2022/07/07 02:04:14;;;;;;;3.00;2.20;;;16.30;91.30;;;;;;5031814;28;20192;-62
2022/07/07 02:06:39;;;;;;;2.80;2.50;;;16.20;91.30;;;;;;5031636;28;20206;-60
2022/07/07 02:09:05;;;;;;;2.70;2.50;;;16.30;91.50;;;;;;5027127;28;20210;-60
2022/07/07 02:11:31;;;;;;;2.63;2.42;;;16.40;91.60;;;;;;5027864;28;20383;-60
2022/07/07 02:13:57;;;;;;;2.90;2.70;;;16.40;91.60;;;;;;5026872;28;20205;-60
2022/07/07 02:16:24;;;;;;;4.00;2.50;;;16.20;91.60;;;;;;5027599;28;20190;-60
2022/07/07 02:18:55;;;;;;;3.17;2.97;;;16.30;91.80;;;;;;5030091;28;20280;-60
2022/07/07 02:21:21;;;;;;;4.07;2.92;;;16.20;91.90;;;;;;5031622;28;20555;-60
2022/07/07 02:23:49;;;;;;;2.60;2.40;;;16.10;92.40;;;;;;5024427;28;20657;-59
2022/07/07 02:26:15;;;;;;;2.72;2.53;;;16.00;92.50;;;;;;5030675;28;20193;-60
2022/07/07 02:28:41;;;;;;;2.73;2.53;;;16.40;92.40;;;;;;5031256;28;20652;-60
2022/07/07 02:31:08;;;;;;;2.47;2.28;;;16.40;92.40;;;;;;5022079;28;20221;-60
2022/07/07 02:33:34;;;;;;;2.67;2.47;;;16.30;92.50;;;;;;5027383;28;20224;-60
2022/07/07 02:36:00;;;;;;;2.83;2.20;;;16.20;92.60;;;;;;5028357;28;20251;-60
2022/07/07 02:38:26;;;;;;;2.80;2.50;;;16.30;93.20;;;;;;5030284;28;20595;-60
2022/07/07 02:40:52;;;;;;;2.47;2.28;;;16.10;92.80;;;;;;5023551;28;20213;-60
2022/07/07 02:43:18;;;;;;;2.57;2.23;;;16.40;92.90;;;;;;5026723;28;20190;-60
2022/07/07 02:45:45;;;;;;;2.60;2.40;;;16.00;92.80;;;;;;5031151;28;20436;-60
2022/07/07 02:48:13;;;;;;;4.60;2.70;;;16.10;92.80;;;;;;5027585;28;20273;-60
2022/07/07 02:50:39;;;;;;;4.38;2.63;;;16.30;92.80;;;;;;5029397;28;20564;-60
2022/07/07 02:53:07;;;;;;;2.53;2.33;;;16.30;92.70;;;;;;5030736;28;20261;-60
2022/07/07 02:55:32;;;;;;;2.90;2.70;;;16.00;92.60;;;;;;5030884;28;20178;-60
2022/07/07 02:57:59;;;;;;;3.80;2.60;;;16.10;92.70;;;;;;5026610;28;20173;-61
2022/07/07 03:00:25;;;;;;;2.10;2.00;;;16.20;92.80;;;;;;5025618;28;20186;-60
2022/07/07 03:02:52;;;;;;;3.70;2.60;;;16.30;92.70;;;;;;5025913;28;20213;-60
2022/07/07 03:05:18;;;;;;;3.85;3.10;;;16.30;92.40;;;;;;5029808;28;20277;-60
2022/07/07 03:07:43;;;;;;;3.15;2.70;;;16.10;92.50;;;;;;5030382;28;20228;-61
2022/07/07 03:10:09;;;;;;;2.50;2.30;;;16.20;92.60;;;;;;5027180;28;20245;-60
2022/07/07 03:12:34;;;;;;;4.20;2.27;;;16.40;92.30;;;;;;5030377;28;20592;-60
2022/07/07 03:15:00;;;;;;;2.60;2.20;;;16.40;92.40;;;;;;5026450;28;20182;-61
2022/07/07 03:17:26;;;;;;;2.50;2.30;;;16.30;92.30;;;;;;5027173;28;20236;-60
2022/07/07 03:19:52;;;;;;;3.30;2.50;;;16.50;92.60;;;;;;5025510;28;20191;-60
2022/07/07 03:22:18;;;;;;;4.17;2.60;;;16.30;93.00;;;;;;5026955;28;20541;-60
2022/07/07 03:24:44;;;;;;;3.40;2.50;;;16.40;93.10;;;;;;5030198;28;20174;-60
2022/07/07 03:27:10;;;;;;;3.07;2.87;;;16.30;93.10;;;;;;5028330;28;20193;-60
2022/07/07 03:29:36;;;;;;;2.23;2.00;;;16.30;92.50;;;;;;5028354;28;20937;-60
2022/07/07 03:32:01;;;;;;;3.23;2.53;;;16.30;92.30;;;;;;5025360;28;20194;-60
2022/07/07 03:34:27;;;;;;;2.10;1.90;;;16.30;92.30;;;;;;5025101;28;20229;-60
2022/07/07 03:36:52;;;;;;;2.50;2.03;;;16.30;92.20;;;;;;5030016;28;20174;-60
2022/07/07 03:39:18;;;;;;;3.00;2.57;;;16.30;92.20;;;;;;5030114;28;20189;-60
2022/07/07 03:41:44;;;;;;;2.80;2.33;;;16.20;92.00;;;;;;5030001;28;20257;-60
2022/07/07 03:44:09;;;;;;;3.63;2.10;;;16.40;92.20;;;;;;5027266;28;20197;-60
2022/07/07 03:46:35;;;;;;;3.73;1.87;;;16.30;92.10;;;;;;5028781;28;20227;-60
2022/07/07 03:49:01;;;;;;;2.70;2.13;;;16.40;92.10;;;;;;5027839;28;20216;-60
2022/07/07 03:51:26;;;;;;;2.60;2.40;;;16.50;92.20;;;;;;5034105;28;20226;-60
2022/07/07 03:53:52;;;;;;;2.80;2.23;;;16.50;92.20;;;;;;5030963;28;20197;-60
2022/07/07 03:56:17;;;;;;;2.20;1.97;;;16.40;92.10;;;;;;5027619;28;20273;-60
2022/07/07 03:58:43;;;;;;;2.30;2.10;;;16.50;92.00;;;;;;5026975;28;20242;-61
2022/07/07 04:01:09;;;;;;;4.67;2.77;;;16.30;91.90;;;;;;5026281;28;20606;-59
2022/07/07 04:03:34;;;;;;;2.83;2.63;;;16.30;91.90;;;;;;5029412;28;20273;-60
2022/07/07 04:06:00;;;;;;;2.53;2.33;;;16.60;91.90;;;;;;5027535;28;20210;-60
2022/07/07 04:08:26;;;;;;;3.00;2.70;;;16.70;91.80;;;;;;5028014;28;20197;-60
2022/07/07 04:10:52;;;;;;;2.40;2.20;;;16.70;91.60;;;;;;5029440;28;20217;-63
2022/07/07 04:13:17;;;;;;;2.57;2.20;;;16.70;91.60;;;;;;5030530;28;20288;-63
2022/07/07 04:15:43;;;;;;;2.63;2.03;;;16.70;91.60;;;;;;5030280;28;20442;-63
2022/07/07 04:18:08;;;;;;;6.13;2.67;;;16.70;91.60;;;;;;5031237;28;20201;-63
2022/07/07 04:20:34;;;;;;;3.53;2.37;;;17.00;91.70;;;;;;5029939;28;20286;-63
2022/07/07 04:22:59;;;;;;;2.20;2.10;;;16.60;91.90;;;;;;5032661;28;20194;-63
2022/07/07 04:25:25;;;;;;;2.40;2.20;;;16.60;91.90;;;;;;5027625;28;20197;-63
2022/07/07 04:27:51;;;;;;;2.47;2.27;;;16.70;91.40;;;;;;5025872;28;20182;-71
2022/07/07 04:30:16;;;;;;;2.80;2.40;;;16.60;91.50;;;;;;5026295;28;20206;-67
2022/07/07 04:32:42;;;;;;;2.60;2.40;;;16.80;91.40;;;;;;5026586;28;20233;-67
2022/07/07 04:35:08;;;;;;;4.93;2.43;;;16.90;91.30;;;;;;5029227;28;20273;-63
2022/07/07 04:37:34;;;;;;;3.23;2.50;;;16.90;90.90;;;;;;5040674;28;20206;-63
2022/07/07 04:40:00;;;;;;;3.50;2.60;;;17.10;90.80;;;;;;5026913;28;20977;-66
2022/07/07 04:42:25;;;;;;;3.50;3.20;;;17.10;90.70;;;;;;5031552;28;20234;-63
2022/07/07 04:44:51;;;;;;;3.83;2.40;;;17.10;90.40;;;;;;5030764;28;20257;-63
2022/07/07 04:47:17;;;;;;;2.37;2.17;;;17.30;90.10;;;;;;5024442;28;20461;-62
2022/07/07 04:49:43;;;;;;;3.63;2.53;;;17.30;90.00;;;;;;5026716;28;20220;-62
2022/07/07 04:52:09;;;;;;;2.87;2.60;;;17.50;89.20;;;;;;5030638;28;20468;-63
2022/07/07 04:54:34;;;;;;;3.37;2.63;;;17.60;88.90;;;;;;5028359;28;20222;-63
2022/07/07 04:57:00;;;;;;;2.90;2.60;;;17.70;89.00;;;;;;5031927;28;20480;-65
2022/07/07 04:59:26;;;;;;;2.50;2.30;;;17.50;88.60;;;;;;5028618;28;20448;-65
2022/07/07 05:01:51;;;;;;;3.77;3.50;;;17.70;88.30;;;;;;5027603;28;20236;-64
2022/07/07 05:04:17;;;;;;;3.03;2.33;;;17.70;88.50;;;;;;5026652;28;20248;-62
2022/07/07 05:06:42;;;;;;;3.83;2.10;;;17.70;88.10;;;;;;5031103;28;20210;-65
2022/07/07 05:09:09;;;;;;;3.23;2.27;;;17.80;87.40;;;;;;5031755;28;20675;-68
2022/07/07 05:11:35;;;;;;;2.40;2.20;;;17.80;87.60;;;;;;5029765;28;20202;-67
2022/07/07 05:14:01;;;;;;;2.33;2.00;;;17.60;87.70;;;;;;5029751;28;20182;-70
2022/07/07 05:16:28;;;;;;;3.05;2.28;;;17.80;87.20;;;;;;5022020;28;20239;-64
2022/07/07 05:18:54;;;;;;;2.75;2.10;;;17.90;87.50;;;;;;5029596;28;20344;-65
2022/07/07 05:21:20;;;;;;;2.90;2.10;;;18.00;87.00;;;;;;5031261;28;20758;-68
2022/07/07 05:23:45;;;;;;;2.93;2.20;;;18.10;87.30;;;;;;5032067;28;20197;-65
2022/07/07 05:26:12;;;;;;;4.50;2.50;;;18.20;86.40;;;;;;5024927;28;20815;-66
2022/07/07 05:28:41;;;;;;;6.00;3.17;;;18.10;86.00;;;;;;5028154;28;20189;-67
2022/07/07 05:31:08;;;;;;;3.45;2.65;;;18.10;86.90;;;;;;5024997;28;20209;-66
2022/07/07 05:33:34;;;;;;;4.10;2.50;;;18.10;87.00;;;;;;5026854;28;20261;-66
2022/07/07 05:35:59;;;;;;;3.30;3.00;;;18.10;86.70;;;;;;5027053;28;20313;-67
2022/07/07 05:38:25;;;;;;;2.40;2.10;;;18.00;87.00;;;;;;5032202;28;20175;-68
2022/07/07 05:40:50;;;;;;;2.80;2.37;;;18.10;87.40;;;;;;5026898;28;20210;-67
2022/07/07 05:43:16;;;;;;;2.63;2.40;;;18.20;87.10;;;;;;5028946;28;20682;-59
2022/07/07 05:45:41;;;;;;;2.60;2.40;;;18.20;87.60;;;;;;5025800;28;20186;-59
2022/07/07 05:48:07;;;;;;;3.70;1.80;;;18.30;86.80;;;;;;5027799;28;20656;-60
2022/07/07 05:50:33;;;;;;;2.27;2.07;;;18.30;86.90;;;;;;5028600;28;20213;-58
2022/07/07 05:52:58;;;;;;;4.23;2.43;;;18.40;86.30;;;;;;5028552;28;20261;-58
2022/07/07 05:55:24;;;;;;;2.30;2.00;;;18.50;86.40;;;;;;5030464;28;20182;-60
2022/07/07 05:57:49;;;;;;;2.80;2.07;;;18.60;86.00;;;;;;5030074;28;20825;-59
2022/07/07 06:00:15;;;;;;;2.80;2.13;;;18.70;85.50;;;;;;5025799;28;20187;-59
2022/07/07 06:02:41;;;;;;;4.67;2.90;;;18.70;85.10;;;;;;5026110;28;20215;-59
2022/07/07 06:05:06;;;;;;;3.43;2.37;;;18.80;83.90;;;;;;5022730;28;20178;-60
2022/07/07 06:07:32;;;;;;;2.10;1.83;;;19.00;83.30;;;;;;5027328;28;20627;-58
2022/07/07 06:09:58;;;;;;;4.00;2.72;;;19.00;82.60;;;;;;5029780;28;20534;-58
2022/07/07 06:12:24;;;;;;;2.73;2.33;;;19.20;82.60;;;;;;5023952;28;20217;-66
2022/07/07 06:14:49;;;;;;;2.63;1.90;;;19.40;82.20;;;;;;5023645;28;20204;-69
2022/07/07 06:17:15;;;;;;;3.10;2.73;;;19.60;80.80;;;;;;5026882;28;20190;-69
2022/07/07 06:19:40;;;;;;;3.23;2.20;;;19.70;80.00;;;;;;5024826;28;20675;-70
2022/07/07 06:22:06;;;;;;;3.67;2.20;;;19.90;79.50;;;;;;5026188;28;20217;-73
2022/07/07 06:24:32;;;;;;;4.90;2.53;;;20.20;79.40;;;;;;5028777;28;20637;-72
2022/07/07 06:26:57;;;;;;;3.90;2.00;;;20.50;77.60;;;;;;5028658;28;20675;-79
2022/07/07 06:29:23;;;;;;;4.03;2.33;;;20.60;76.10;;;;;;5011802;28;20257;-73
2022/07/07 06:31:48;;;;;;;2.73;1.90;;;20.60;75.60;;;;;;5025136;28;20207;-73
2022/07/07 06:34:14;;;;;;;3.20;2.20;;;20.70;75.40;;;;;;5029459;28;20241;-73
2022/07/07 06:36:40;;;;;;;3.77;2.20;;;20.70;75.30;;;;;;5017751;28;20209;-72
2022/07/07 06:39:05;;;;;;;2.73;2.40;;;20.80;75.60;;;;;;5030491;28;20264;-72
2022/07/07 06:41:38;;;;;;;2.77;2.27;;;20.90;75.10;;;;;;5019280;28;20233;-69
2022/07/07 06:44:05;;;;;;;3.58;2.67;;;21.00;74.50;;;;;;5018711;28;20640;-69
2022/07/07 06:46:31;;;;;;;2.30;2.10;;;21.20;74.70;;;;;;5028867;28;20236;-70
2022/07/07 06:48:57;;;;;;;2.67;2.28;;;21.40;73.00;;;;;;5025148;28;20289;-69
2022/07/07 06:51:23;;;;;;;3.93;2.70;;;21.50;72.00;;;;;;5026166;28;20209;-67
2022/07/07 06:53:49;;;;;;;3.30;2.40;;;21.60;71.00;;;;;;5021511;28;20448;-67
2022/07/07 06:56:15;;;;;;;3.07;2.30;;;21.60;70.80;;;;;;5022556;28;20239;-67
2022/07/07 06:58:40;;;;;;;4.43;3.30;;;21.70;70.50;;;;;;5025016;28;21055;-68
2022/07/07 07:01:06;;;;;;;9.90;8.27;;;22.00;70.30;;;;;;5030363;28;20225;-69
2022/07/07 07:03:31;;;;;;;2.60;2.40;;;22.10;69.60;;;;;;5026440;28;20186;-65
2022/07/07 07:05:57;;;;;;;4.80;2.57;;;22.40;69.40;;;;;;5030031;28;20212;-61
2022/07/07 07:08:22;;;;;;;2.30;2.07;;;22.70;67.50;;;;;;5019663;28;20197;-61
2022/07/07 07:10:48;;;;;;;3.43;2.30;;;23.20;66.30;;;;;;5021321;28;20218;-61
2022/07/07 07:13:14;;;;;;;4.77;2.13;;;24.40;63.60;;;;;;5026827;28;20275;-63
2022/07/07 07:15:39;;;;;;;2.93;2.20;;;24.90;61.50;;;;;;5026876;28;20303;-64
2022/07/07 07:18:06;;;;;;;2.87;2.10;;;25.40;59.60;;;;;;5022479;28;20855;-65
2022/07/07 07:20:32;;;;;;;2.33;2.13;;;25.50;59.00;;;;;;5025993;28;20270;-64
2022/07/07 07:22:58;;;;;;;2.70;2.33;;;25.40;59.20;;;;;;5025369;28;20462;-65
2022/07/07 07:25:24;;;;;;;2.50;2.30;;;25.50;59.10;;;;;;5024369;28;20446;-65
2022/07/07 07:27:50;;;;;;;2.50;2.30;;;25.10;59.20;;;;;;5030447;28;20433;-65
2022/07/07 07:30:16;;;;;;;5.03;2.20;;;24.50;60.40;;;;;;5022805;28;20572;-59
2022/07/07 07:32:42;;;;;;;4.27;2.50;;;24.50;60.80;;;;;;5021709;28;20457;-60
2022/07/07 07:35:08;;;;;;;2.33;2.13;;;24.60;60.60;;;;;;5019754;28;20183;-60
2022/07/07 07:37:34;;;;;;;2.83;2.63;;;24.50;61.00;;;;;;5021962;28;20446;-60
2022/07/07 07:39:59;;;;;;;2.10;2.00;;;24.30;61.70;;;;;;5027530;28;20190;-60
2022/07/07 07:42:25;;;;;;;2.43;2.23;;;24.20;62.10;;;;;;5021964;28;20245;-63
2022/07/07 07:45:09;;;;;;;2.80;2.60;;;23.90;62.80;;;;;;5024651;28;20191;-64
2022/07/07 07:47:35;;;;;;;2.93;2.30;;;23.80;63.70;;;;;;5025437;28;20192;-64
2022/07/07 07:50:01;;;;;;;2.43;2.23;;;23.70;63.60;;;;;;5024952;28;20479;-65
2022/07/07 07:52:27;;;;;;;2.53;2.33;;;23.70;64.10;;;;;;5023530;28;21305;-63
2022/07/07 07:54:52;;;;;;;2.80;2.60;;;23.60;64.00;;;;;;5027862;28;20186;-65
2022/07/07 07:57:18;;;;;;;4.13;2.47;;;23.60;64.70;;;;;;5026937;28;20186;-64
2022/07/07 07:59:44;;;;;;;3.63;2.90;;;23.30;65.60;;;;;;5023916;28;20444;-64
2022/07/07 08:02:09;;;;;;;2.80;2.60;;;23.20;67.00;;;;;;5026040;28;20445;-63
2022/07/07 08:04:35;;;;;;;3.17;2.47;;;22.90;67.40;;;;;;5023189;28;20317;-68
2022/07/07 08:07:01;;;;;;;3.50;2.60;;;22.60;67.50;;;;;;5027450;28;20576;-61
2022/07/07 08:09:27;;;;;;;2.63;2.43;;;21.90;67.80;;;;;;5026508;28;20213;-61
2022/07/07 08:11:53;;;;;;;4.20;2.70;;;22.10;69.60;;;;;;5021955;28;20215;-61
2022/07/07 08:14:18;;;;;;;8.17;3.30;;;22.00;71.20;;;;;;5021955;28;20444;-62
2022/07/07 08:16:44;;;;;;;3.07;2.77;;;22.00;71.70;;;;;;5027459;28;20444;-67
2022/07/07 08:19:10;;;;;;;4.27;3.00;;;22.00;71.40;;;;;;5028638;28;20265;-66
2022/07/07 08:21:36;;;;;;;3.23;2.93;;;22.00;71.30;;;;;;5023774;28;20202;-64
2022/07/07 08:24:02;;;;;;;3.00;2.80;;;22.00;71.40;;;;;;5018262;28;20210;-65
2022/07/07 08:26:27;;;;;;;4.32;3.38;;;22.00;71.60;;;;;;5029622;28;21274;-67
2022/07/07 08:28:54;;;;;;;4.27;3.87;;;22.00;72.00;;;;;;5022229;28;20218;-67
2022/07/07 08:31:19;;;;;;;3.47;3.17;;;21.90;72.30;;;;;;5024018;28;20210;-67
2022/07/07 08:33:45;;;;;;;6.03;3.27;;;21.90;72.60;;;;;;5018702;28;20463;-67
2022/07/07 08:36:10;;;;;;;4.10;3.33;;;22.00;73.00;;;;;;5032465;28;20636;-66
2022/07/07 08:38:36;;;;;;;4.10;2.97;;;22.00;73.40;;;;;;5032247;28;20175;-66
2022/07/07 08:41:02;;;;;;;4.43;3.60;;;22.00;73.50;;;;;;5024289;28;20566;-64
2022/07/07 08:43:29;;;;;;;3.70;3.07;;;22.00;73.90;;;;;;5029197;28;20186;-62
2022/07/07 08:45:55;;;;;;;3.40;3.10;;;22.10;73.60;;;;;;5031964;28;20437;-63
2022/07/07 08:48:21;;;;;;;3.37;3.07;;;22.20;73.30;;;;;;5028397;28;20455;-62
2022/07/07 08:50:47;;;;;;;4.20;3.80;;;22.30;73.40;;;;;;5040944;28;20561;-62
2022/07/07 08:53:13;;;;;;;4.00;2.87;;;22.30;73.50;;;;;;5017069;28;20555;-59
2022/07/07 08:55:41;;;;;;;4.27;3.50;;;22.50;73.30;;;;;;5030589;28;20276;-59
2022/07/07 08:58:09;;;;;;;5.40;3.30;;;22.70;73.30;;;;;;5026913;28;20432;-66
2022/07/07 09:00:35;;;;;;;4.83;3.53;;;23.00;72.90;;;;;;5029908;28;20495;-67
2022/07/07 09:03:03;;;;;;;5.23;4.60;;;24.30;71.40;;;;;;5032366;28;20848;-65
2022/07/07 09:05:37;;;;;;;4.40;4.10;;;25.70;67.20;;;;;;5029459;28;20200;-65
2022/07/07 09:08:19;;;;;;;5.53;3.80;;;27.30;61.90;;;;;;5021733;28;20523;-65
2022/07/07 09:10:45;;;;;;;5.87;3.90;;;28.20;58.90;;;;;;5029898;28;20896;-67
2022/07/07 09:13:25;;;;;;;4.30;3.47;;;29.00;57.20;;;;;;5023052;28;20468;-68
2022/07/07 09:15:56;;;;;;;4.03;3.43;;;29.90;55.50;;;;;;5029944;28;20445;-61
2022/07/07 09:18:31;;;;;;;3.63;3.33;;;30.60;53.70;;;;;;5029748;28;20542;-65
2022/07/07 09:20:58;;;;;;;3.63;3.30;;;31.30;51.60;;;;;;5032098;28;20460;-64
2022/07/07 09:23:24;;;;;;;6.03;3.30;;;32.00;50.40;;;;;;5029661;28;20450;-64
2022/07/07 09:25:50;;;;;;;3.53;3.23;;;30.90;51.00;;;;;;5029627;28;20838;-65
2022/07/07 09:28:16;;;;;;;3.40;3.10;;;29.30;52.80;;;;;;5028357;28;20473;-65
2022/07/07 09:30:47;;;;;;;5.00;3.03;;;28.00;56.10;;;;;;5023795;28;20217;-63
2022/07/07 09:33:15;;;;;;;4.03;3.03;;;26.80;58.60;;;;;;5024673;28;20190;-66
2022/07/07 09:38:30;;;;;;;2.60;2.33;;;25.40;64.50;;;;;;5025056;28;20550;-64
2022/07/07 09:41:01;;;;;;;2.47;2.10;;;24.70;66.70;;;;;;5027922;28;20470;-64
2022/07/07 09:43:30;;;;;;;2.30;2.10;;;24.20;69.00;;;;;;5024744;28;20953;-72
2022/07/07 09:46:05;;;;;;;2.37;2.27;;;23.80;71.00;;;;;;5031464;28;20468;-71
2022/07/07 09:48:32;;;;;;;2.50;2.10;;;23.50;73.50;;;;;;5025790;28;20449;-66
2022/07/07 09:51:10;;;;;;;2.33;2.10;;;23.10;74.80;;;;;;5023894;28;20500;-65
2022/07/07 09:53:51;;;;;;;4.30;2.70;;;22.80;76.80;;;;;;5022802;28;21054;-65
2022/07/07 09:56:19;;;;;;;3.17;2.57;;;22.60;78.50;;;;;;5024667;28;20448;-58
2022/07/07 09:58:45;;;;;;;3.73;2.93;;;22.40;79.60;;;;;;5029403;28;20437;-60
2022/07/07 10:01:11;;;;;;;2.33;2.23;;;22.20;80.30;;;;;;5028684;28;20467;-60
2022/07/07 10:03:37;;;;;;;2.53;2.17;;;22.10;80.60;;;;;;5027635;28;20585;-59
2022/07/07 10:06:03;;;;;;;2.63;2.33;;;22.10;81.70;;;;;;5022990;28;20463;-60
2022/07/07 10:08:31;;;;;;;3.50;3.20;;;22.20;81.00;;;;;;5020911;28;20193;-60
2022/07/07 10:10:58;;;;;;;2.60;2.40;;;22.30;80.70;;;;;;5023541;28;20816;-60
2022/07/07 10:13:27;;;;;;;2.80;2.60;;;22.20;81.00;;;;;;5023684;28;20956;-59
2022/07/07 10:15:53;;;;;;;2.60;2.40;;;22.20;81.50;;;;;;5024518;28;20807;-58
2022/07/07 10:18:20;;;;;;;2.47;2.37;;;22.30;81.70;;;;;;5019116;28;21145;-58
2022/07/07 10:20:46;;;;;;;3.00;2.70;;;22.40;80.10;;;;;;5020043;28;20190;-58
2022/07/07 10:23:12;;;;;;;2.90;2.60;;;22.50;80.80;;;;;;5026690;28;20440;-58
2022/07/07 10:25:38;;;;;;;3.63;3.10;;;22.50;80.70;;;;;;5024817;28;20434;-58
2022/07/07 10:28:04;;;;;;;4.00;2.50;;;22.70;80.30;;;;;;5021114;28;20199;-58
2022/07/07 10:30:33;;;;;;;3.83;2.90;;;22.80;79.90;;;;;;5021726;28;20725;-60
2022/07/07 10:32:58;;;;;;;2.73;2.20;;;22.80;79.20;;;;;;5024539;28;20444;-60
2022/07/07 10:35:25;;;;;;;3.47;2.67;;;22.90;77.40;;;;;;5021608;28;20803;-58
2022/07/07 10:37:53;;;;;;;2.37;2.20;;;22.70;78.30;;;;;;5018412;28;20232;-57
2022/07/07 10:40:29;;;;;;;3.80;2.80;;;22.70;78.40;;;;;;5028577;28;20472;-58
2022/07/07 10:43:07;;;;;;;2.93;2.63;;;22.80;78.70;;;;;;5022821;28;20440;-58
2022/07/07 10:45:33;;;;;;;2.43;2.23;;;22.80;78.20;;;;;;5023865;28;20484;-60
2022/07/07 10:47:59;;;;;;;2.57;2.33;;;22.70;78.40;;;;;;5027728;28;20522;-57
2022/07/07 10:50:33;;;;;;;2.70;2.50;;;22.80;77.80;;;;;;5023213;28;20360;-58
2022/07/07 10:52:59;;;;;;;2.50;2.40;;;22.90;77.90;;;;;;5026595;28;20189;-57
2022/07/07 10:55:55;;;;;;;2.73;2.53;;;22.90;77.90;;;;;;5022455;28;20435;-65
2022/07/07 10:58:43;;;;;;;2.80;2.60;;;22.90;77.60;;;;;;5023573;28;20444;-64
2022/07/07 11:01:08;;;;;;;3.53;2.73;;;22.90;77.60;;;;;;5020839;28;20480;-65
2022/07/07 11:03:36;;;;;;;3.93;2.63;;;22.90;78.10;;;;;;5025826;28;20452;-65
2022/07/07 11:06:03;;;;;;;3.80;2.33;;;22.80;79.10;;;;;;5020117;28;20305;-67
2022/07/07 11:08:35;;;;;;;3.30;3.00;;;22.80;79.00;;;;;;5028648;28;20444;-65
2022/07/07 11:11:03;;;;;;;3.10;2.80;;;22.60;79.60;;;;;;5026943;28;20480;-66
2022/07/07 11:13:30;;;;;;;4.50;2.90;;;22.60;79.60;;;;;;5026615;28;20815;-66
2022/07/07 11:16:27;;;;;;;3.57;3.27;;;22.40;80.60;;;;;;5028308;28;20433;-67
2022/07/07 11:18:57;;;;;;;4.27;2.80;;;22.50;80.90;;;;;;5020035;28;20524;-64
2022/07/07 11:21:37;;;;;;;3.50;2.23;;;22.50;81.40;;;;;;5030256;28;20560;-63
2022/07/07 11:24:23;;;;;;;3.80;2.23;;;22.50;81.00;;;;;;5027281;28;20445;-63
2022/07/07 11:27:05;;;;;;;5.50;2.30;;;22.60;81.20;;;;;;5021340;28;20432;-68
2022/07/07 11:29:31;;;;;;;2.70;2.30;;;22.50;81.10;;;;;;5029048;28;20470;-60
2022/07/07 11:32:06;;;;;;;4.40;3.63;;;22.50;81.60;;;;;;5024925;28;20464;-60
2022/07/07 11:34:48;;;;;;;3.50;2.27;;;22.40;81.10;;;;;;5020230;28;20969;-60
2022/07/07 11:37:25;;;;;;;3.70;2.70;;;22.40;82.00;;;;;;5024489;28;20441;-60
2022/07/07 11:39:52;;;;;;;2.77;2.53;;;22.50;81.90;;;;;;5024340;28;20446;-61
2022/07/07 11:42:18;;;;;;;3.27;2.37;;;22.60;81.90;;;;;;5024807;28;20484;-60
2022/07/07 11:44:43;;;;;;;6.10;2.30;;;22.60;80.60;;;;;;5026033;28;20459;-60
2022/07/07 11:47:09;;;;;;;2.40;2.00;;;22.50;80.80;;;;;;5022896;28;20248;-60
2022/07/07 11:49:35;;;;;;;3.20;2.23;;;22.40;81.40;;;;;;5016751;28;20225;-60
2022/07/07 11:52:01;;;;;;;3.07;2.77;;;22.40;81.30;;;;;;5028802;28;20453;-65
2022/07/07 11:54:26;;;;;;;3.57;2.30;;;22.30;81.20;;;;;;5028789;28;20244;-64
2022/07/07 11:56:52;;;;;;;3.47;3.17;;;22.30;81.80;;;;;;5027232;28;20206;-66
2022/07/07 11:59:21;;;;;;;3.00;2.37;;;22.30;81.80;;;;;;5025839;28;20243;-66
2022/07/07 12:01:50;;;;;;;2.67;2.47;;;22.40;81.10;;;;;;5023531;28;20229;-65
2022/07/07 12:04:17;;;;;;;3.90;2.70;;;22.40;81.10;;;;;;5015509;28;20448;-64
2022/07/07 12:06:44;;;;;;;2.63;2.43;;;22.40;80.30;;;;;;5028266;28;20535;-65
2022/07/07 12:09:10;;;;;;;5.10;3.37;;;22.40;80.30;;;;;;5023363;28;20544;-63
2022/07/07 12:11:40;;;;;;;3.93;2.73;;;22.40;80.40;;;;;;5027382;28;20496;-63
2022/07/07 12:14:08;;;;;;;5.32;2.55;;;22.30;80.50;;;;;;5016932;28;20519;-65
2022/07/07 12:16:49;;;;;;;2.57;2.37;;;22.10;80.50;;;;;;5023348;28;20189;-64
2022/07/07 12:19:16;;;;;;;6.13;2.80;;;22.10;80.60;;;;;;5029467;28;20451;-65
2022/07/07 12:21:47;;;;;;;3.00;2.80;;;22.20;80.50;;;;;;5027325;28;20465;-64
2022/07/07 12:24:14;;;;;;;3.07;2.87;;;22.30;80.70;;;;;;5028413;28;20441;-66
2022/07/07 12:26:49;;;;;;;3.97;2.73;;;22.30;81.10;;;;;;5031927;28;20468;-64
2022/07/07 12:29:19;;;;;;;3.70;2.90;;;22.40;80.10;;;;;;5032336;28;20440;-65
2022/07/07 12:31:46;;;;;;;2.63;2.43;;;22.60;80.00;;;;;;5028064;28;20563;-64
2022/07/07 12:34:14;;;;;;;2.97;2.40;;;22.50;80.00;;;;;;5028434;28;20448;-71
2022/07/07 12:36:41;;;;;;;5.07;3.00;;;22.40;80.10;;;;;;5026068;28;20480;-69
2022/07/07 12:39:07;;;;;;;3.07;2.87;;;22.50;80.20;;;;;;5027538;28;20441;-70
2022/07/07 12:41:36;;;;;;;3.03;2.83;;;22.60;79.50;;;;;;5031858;28;20483;-68
2022/07/07 12:44:15;;;;;;;4.13;2.50;;;22.80;78.70;;;;;;5028430;28;20449;-68
2022/07/07 12:46:42;;;;;;;3.20;3.00;;;22.80;78.70;;;;;;5030560;28;20494;-68
2022/07/07 12:49:08;;;;;;;3.50;2.47;;;22.80;78.90;;;;;;5029631;28;20440;-72
2022/07/07 12:51:34;;;;;;;2.97;2.67;;;22.70;78.70;;;;;;5030530;28;20515;-73